Flight Track Log - Related Links

Times and Time Zones

All times are in EDT time to prevent confusion due to time zone crossing. See the AFR3997 flight status page for this flight to view local times or setup timezone preferences in your user account.


Time Position Orientation Groundspeed Altitude Reporting Facility
EDT Latitude Longitude Course Direction KTS MPH feet Rate Location/Type
Sat 09:33:51 PM 14.8270 -61.0050 340° North 322 371 10,800  Level FlightAware ADS-B
Sat 09:34:22 PM 14.8680 -61.0200 341° North 341 392 11,800 2,400 Climbing FlightAware ADS-B
Sat 09:35:01 PM 14.9310 -61.0450 339° North 349 402 13,600 1,760 Climbing FlightAware ADS-B
Sat 09:35:37 PM 14.9740 -61.0770 324° Northwest 355 409 14,000 338 Climbing FlightAware ADS-B
Sat 09:36:12 PM 15.0170 -61.1100 323° Northwest 353 406 14,000  Level FlightAware ADS-B
Sat 09:36:47 PM 15.0750 -61.1410 333° Northwest 350 403 14,000  Level FlightAware ADS-B
Sat 09:37:19 PM 15.1220 -61.1560 343° North 350 403 14,000  Level FlightAware ADS-B
Sat 09:37:57 PM 15.1820 -61.1760 342° North 349 402 14,000  Level FlightAware ADS-B
Sat 09:38:29 PM 15.2300 -61.1920 342° North 350 403 14,000  Level FlightAware ADS-B
Sat 09:39:13 PM 15.3000 -61.2130 344° North 349 402 14,000  Level FlightAware ADS-B
Sat 09:39:52 PM 15.3610 -61.2230 351° North 348 400 14,000  Level FlightAware ADS-B
Sat 09:40:23 PM 15.4120 -61.2320 350° North 347 399 14,000  Level FlightAware ADS-B
Sat 09:40:54 PM 15.4610 -61.2400 351° North 342 394 14,000  Level FlightAware ADS-B
Sat 09:41:34 PM 15.5240 -61.2490 352° North 311 358 14,000  Level FlightAware ADS-B
Sat 09:42:06 PM 15.5670 -61.2550 352° North 307 353 14,000  Level FlightAware ADS-B
Sat 09:42:45 PM 15.6100 -61.2610 352° North 306 352 14,000  Level FlightAware ADS-B
Sat 09:43:18 PM 15.6650 -61.2680 353° North 302 348 14,000 -971 Level FlightAware ADS-B
Sat 09:43:53 PM 15.7140 -61.2730 354° North 305 351 12,900 -1,606 Descending FlightAware ADS-B
Sat 09:44:29 PM 15.7690 -61.2800 353° North 306 352 12,100 -1,077 Descending FlightAware ADS-B
Sat 09:45:11 PM 15.8250 -61.2880 352° North 303 349 11,500 -987 Descending FlightAware ADS-B
Sat 09:45:48 PM 15.8780 -61.2970 351° North 297 342 10,800 -1,455 Descending FlightAware ADS-B
Sat 09:46:17 PM 15.9160 -61.3040 350° North 298 343 9,900 -1,778 Descending FlightAware ADS-B
Sat 09:46:42 PM 15.9480 -61.3100 350° North 301 346 9,200 -1,814 Descending FlightAware ADS-B
Sat 09:47:00 PM 15.9740 -61.3170 345° North 306 352 8,600 -1,469 Descending FlightAware ADS-B
Sat 09:47:31 PM 16.0160 -61.3320 341° North 292 336 8,000 -1,347 Descending FlightAware ADS-B
Sat 09:47:49 PM 16.0400 -61.3420 338° Northwest 291 335 7,500 -1,535 Descending FlightAware ADS-B
Sat 09:48:14 PM 16.0690 -61.3600 329° Northwest 289 333 6,900 -1,535 Descending FlightAware ADS-B
Sat 09:48:32 PM 16.0880 -61.3710 331° Northwest 287 330 6,400 -1,660 Descending FlightAware ADS-B
Sat 09:49:01 PM 16.1220 -61.3900 332° Northwest 279 321 5,600 -1,920 Descending FlightAware ADS-B
Sat 09:49:22 PM 16.1450 -61.4040 330° Northwest 279 321 4,800 -2,364 Descending FlightAware ADS-B
Sat 09:49:34 PM 16.1580 -61.4130 326° Northwest 278 320 4,300 -1,846 Descending FlightAware ADS-B
Sat 09:50:01 PM 16.1860 -61.4330 326° Northwest 278 320 3,600 -824 Descending FlightAware ADS-B
Sat 09:50:25 PM 16.2140 -61.4520 327° Northwest 277 319 3,600  Level FlightAware ADS-B
Sat 09:50:41 PM 16.2290 -61.4630 325° Northwest 275 316 3,600  Level FlightAware ADS-B
Sat 09:51:06 PM 16.2580 -61.4830 326° Northwest 276 318 3,600  Level FlightAware ADS-B
Sat 09:51:32 PM 16.2830 -61.5000 327° Northwest 276 318 3,600  Level FlightAware ADS-B
Sat 09:51:48 PM 16.3020 -61.5130 327° Northwest 277 319 3,600  Level FlightAware ADS-B
Sat 09:52:10 PM 16.3290 -61.5320 326° Northwest 274 315 3,600  Level FlightAware ADS-B
Sat 09:52:47 PM 16.3610 -61.5550 325° Northwest 273 314 3,600  Level FlightAware ADS-B
Sat 09:53:06 PM 16.3830 -61.5710 325° Northwest 276 318 3,600  Level FlightAware ADS-B
Sat 09:53:31 PM 16.4050 -61.5870 325° Northwest 276 318 3,600  Level FlightAware ADS-B
Sat 09:54:00 PM 16.4100 -61.6280 277° West 292 336 3,600  Level FlightAware ADS-B
Sat 09:54:26 PM 16.4110 -61.6590 272° West 292 336 3,600  Level FlightAware ADS-B
Sat 09:54:40 PM 16.4030 -61.6920 256° West 291 335 3,600  Level FlightAware ADS-B
Sat 09:54:59 PM 16.3990 -61.7090 256° West 295 339 3,600  Level FlightAware ADS-B
Sat 09:55:25 PM 16.3890 -61.7380 250° West 295 339 3,600  Level FlightAware ADS-B

Login

Don't have an account? Register now (free) for customized features, flight alerts, and more!